Time;durP1;ratioP1;P1;durP2;ratioP2;P2;SDS_P1;SDS_P2;PMS_P1;PMS_P2;Temp;Humidity;BMP_temperature;BMP_pressure;BME280_temperature;BME280_humidity;BME280_pressure;Samples;Min_cycle;Max_cycle;Signal;HPM_P1;HPM_P2
2021/03/03 00:00:17;;;;;;;;;47.00;38.20;;;;;3.43;75.80;100885.70;460657;118;386785;-76
2021/03/03 00:01:21;;;;;;;;;39.00;31.00;;;;;3.50;75.58;100894.20;477546;114;385241;-72
2021/03/03 00:02:25;;;;;;;;;32.70;26.40;;;;;3.36;76.00;100886.01;477875;114;383210;-71
2021/03/03 00:03:29;;;;;;;;;47.30;38.90;;;;;3.41;76.03;100884.06;477763;114;386388;-72
2021/03/03 00:04:33;;;;;;;;;41.80;33.50;;;;;3.41;76.03;100884.06;477294;114;386420;-71
2021/03/03 00:05:37;;;;;;;;;36.80;32.70;;;;;3.42;75.81;100886.61;477764;114;384741;-72
2021/03/03 00:06:43;;;;;;;;;44.30;33.90;;;;;3.45;75.50;100888.25;477206;114;387554;-71
2021/03/03 00:07:46;;;;;;;;;37.60;27.20;;;;;3.52;75.29;100887.94;477800;114;386085;-70
2021/03/03 00:08:51;;;;;;;;;42.50;35.10;;;;;3.53;74.83;100883.55;477482;114;386064;-70
2021/03/03 00:09:55;;;;;;;;;43.90;34.80;;;;;3.53;74.83;100883.55;477511;114;385749;-71
2021/03/03 00:11:01;;;;;;;;;37.90;28.00;;;;;3.48;75.18;100893.38;477063;114;390352;-71
2021/03/03 00:12:07;;;;;;;;;36.30;27.70;;;;;3.42;75.33;100886.61;477759;114;395311;-71
2021/03/03 00:13:11;;;;;;;;;40.90;33.90;;;;;3.44;75.35;100884.80;477263;114;385736;-71
2021/03/03 00:14:15;;;;;;;;;37.00;31.40;;;;;3.50;75.35;100888.94;477746;114;383662;-71
2021/03/03 00:15:19;;;;;;;;;40.90;36.00;;;;;3.50;75.35;100888.94;477241;114;385883;-71
2021/03/03 00:16:23;;;;;;;;;45.00;33.80;;;;;3.44;75.43;100881.30;477758;114;385971;-71
2021/03/03 00:17:27;;;;;;;;;39.50;33.60;;;;;3.35;75.95;100892.20;477774;114;386109;-70
2021/03/03 00:18:31;;;;;;;;;46.90;36.50;;;;;3.38;75.78;100885.05;477725;114;386574;-70
2021/03/03 00:19:35;;;;;;;;;44.00;37.90;;;;;3.38;75.78;100885.05;477548;114;385741;-71
2021/03/03 00:20:40;;;;;;;;;46.80;36.90;;;;;3.40;75.68;100887.59;477421;114;386842;-71
2021/03/03 00:21:44;;;;;;;;;41.10;34.20;;;;;3.42;75.70;100893.64;477327;114;385031;-73
2021/03/03 00:22:48;;;;;;;;;39.20;32.40;;;;;3.46;75.50;100897.86;477807;114;385485;-71
2021/03/03 00:23:52;;;;;;;;;42.70;32.60;;;;;3.43;75.28;100895.36;477748;114;387707;-71
2021/03/03 00:24:56;;;;;;;;;41.10;34.60;;;;;3.43;75.28;100895.36;477759;114;385832;-72
2021/03/03 00:26:00;;;;;;;;;46.40;38.50;;;;;3.54;74.86;100893.98;477768;114;385577;-72
2021/03/03 00:27:04;;;;;;;;;40.10;35.30;;;;;3.54;74.86;100893.98;477789;114;386397;-72
2021/03/03 00:28:08;;;;;;;;;43.70;38.00;;;;;3.54;74.66;100896.61;477505;114;385198;-74
2021/03/03 00:29:12;;;;;;;;;40.20;35.90;;;;;3.54;74.66;100896.61;477883;114;384965;-71
2021/03/03 00:30:18;;;;;;;;;44.30;37.70;;;;;3.54;74.73;100896.61;468840;116;385989;-73
2021/03/03 00:31:22;;;;;;;;;44.70;34.30;;;;;3.57;74.40;100893.85;468909;114;386000;-71
2021/03/03 00:32:26;;;;;;;;;25.60;21.20;;;;;3.51;74.85;100899.38;477876;114;381494;-70
2021/03/03 00:33:30;;;;;;;;;38.10;33.80;;;;;3.55;74.59;100897.47;477780;114;385286;-70
2021/03/03 00:34:34;;;;;;;;;41.20;34.50;;;;;3.56;74.55;100896.56;477730;114;385795;-71
2021/03/03 00:35:38;;;;;;;;;24.70;18.80;;;;;3.47;74.96;100894.33;477460;114;381070;-70
2021/03/03 00:36:42;;;;;;;;;33.40;29.70;;;;;3.47;74.96;100894.33;477522;114;384708;-70
2021/03/03 00:37:46;;;;;;;;;37.00;27.70;;;;;3.54;74.73;100893.16;477818;114;383747;-70
2021/03/03 00:38:50;;;;;;;;;44.50;35.40;;;;;3.58;74.40;100898.20;477715;114;393787;-69
2021/03/03 00:39:54;;;;;;;;;35.00;29.10;;;;;3.63;74.01;100901.52;477776;114;382913;-70
2021/03/03 00:40:58;;;;;;;;;36.10;30.20;;;;;3.64;73.83;100897.94;475619;114;384235;-72
2021/03/03 00:42:02;;;;;;;;;41.10;34.80;;;;;3.67;73.85;100902.21;471606;116;384814;-71
2021/03/03 00:43:06;;;;;;;;;28.60;21.20;;;;;3.67;73.85;100902.21;471570;116;391083;-70
2021/03/03 00:44:10;;;;;;;;;37.40;28.80;;;;;3.71;73.63;100895.91;471628;116;385125;-70
2021/03/03 00:45:15;;;;;;;;;42.50;34.60;;;;;3.71;73.63;100895.91;471568;116;386053;-70
2021/03/03 00:46:19;;;;;;;;;44.90;32.90;;;;;3.76;73.25;100896.59;471023;116;387045;-71
2021/03/03 00:47:23;;;;;;;;;61.00;45.80;;;;;3.75;73.17;100897.50;463228;118;385044;-70
2021/03/03 00:48:27;;;;;;;;;36.70;29.60;;;;;3.75;73.17;100897.50;465290;117;384189;-72
2021/03/03 00:49:31;;;;;;;;;37.90;29.90;;;;;3.69;73.36;100906.52;471311;116;384464;-70
2021/03/03 00:50:36;;;;;;;;;43.80;36.20;;;;;3.74;73.40;100903.66;462979;117;386066;-71
2021/03/03 00:51:40;;;;;;;;;46.80;36.00;;;;;3.75;73.13;100900.12;465469;117;384433;-72
2021/03/03 00:52:44;;;;;;;;;36.80;30.40;;;;;3.77;73.11;100903.53;472611;115;384970;-71
2021/03/03 00:53:48;;;;;;;;;39.00;29.20;;;;;3.78;73.18;100902.63;471532;116;390231;-74
2021/03/03 00:54:53;;;;;;;;;36.90;35.20;;;;;3.78;73.18;100902.63;471038;116;386079;-71
2021/03/03 00:55:57;;;;;;;;;34.00;28.90;;;;;3.78;73.33;100904.39;471563;116;384912;-72
2021/03/03 00:57:04;;;;;;;;;38.60;32.70;;;;;3.73;73.22;100912.50;471260;116;386251;-72
2021/03/03 00:58:08;;;;;;;;;42.70;31.50;;;;;3.73;73.22;100912.50;471267;116;392524;-71
2021/03/03 00:59:14;;;;;;;;;40.40;33.10;;;;;3.78;73.16;100920.17;470580;116;384184;-71
2021/03/03 01:00:20;;;;;;;;;40.80;32.40;;;;;3.78;73.16;100920.17;471303;116;385825;-72
2021/03/03 01:01:24;;;;;;;;;42.20;30.50;;;;;3.84;73.19;100918.14;471327;116;385388;-71
2021/03/03 01:02:29;;;;;;;;;31.50;21.10;;;;;3.83;73.02;100899.81;471646;116;384612;-71
2021/03/03 01:03:33;;;;;;;;;42.60;30.40;;;;;3.83;73.02;100899.81;471305;116;387458;-71
2021/03/03 01:04:51;;;;;;;;;35.20;29.60;;;;;3.87;72.73;100911.89;470563;116;383479;-72
2021/03/03 01:05:54;;;;;;;;;38.50;32.40;;;;;3.87;72.73;100911.89;463141;118;393011;-71
2021/03/03 01:06:59;;;;;;;;;37.20;32.90;;;;;3.86;72.33;100905.77;465269;117;385583;-73
2021/03/03 01:08:04;;;;;;;;;35.40;29.30;;;;;3.85;72.52;100898.81;472867;115;383812;-71
2021/03/03 01:09:08;;;;;;;;;41.90;31.60;;;;;3.85;72.52;100898.81;464851;117;385054;-71
2021/03/03 01:10:14;;;;;;;;;35.50;28.50;;;;;3.88;72.45;100906.58;463612;117;384210;-73
2021/03/03 01:11:18;;;;;;;;;26.40;22.60;;;;;3.88;72.37;100909.20;463035;118;381571;-75
2021/03/03 01:12:23;;;;;;;;;36.20;30.70;;;;;3.86;72.59;100903.14;465150;117;385262;-71
2021/03/03 01:13:28;;;;;;;;;32.80;28.60;;;;;3.89;72.35;100910.93;472861;115;384514;-74
2021/03/03 01:14:32;;;;;;;;;27.00;23.50;;;;;3.89;72.35;100910.93;464867;117;383885;-73
2021/03/03 01:15:36;;;;;;;;;28.80;24.90;;;;;3.92;72.24;100904.67;463604;117;382191;-72
2021/03/03 01:16:49;;;;;;;;;41.40;34.80;;;;;3.92;72.24;100904.67;470498;116;391699;-71
2021/03/03 01:17:52;;;;;;;;;34.70;27.50;;;;;3.94;72.15;100911.57;470940;116;385202;-71
2021/03/03 01:18:56;;;;;;;;;37.10;30.90;;;;;3.96;72.11;100917.61;461002;118;384048;-71
2021/03/03 01:20:00;;;;;;;;;30.50;23.50;;;;;3.80;72.24;100920.98;462349;116;385133;-72
2021/03/03 01:21:04;;;;;;;;;21.50;17.20;;;;;3.80;72.24;100920.98;471645;116;388900;-71
2021/03/03 01:22:07;;;;;;;;;30.70;26.90;;;;;3.74;72.89;100914.19;471173;116;383260;-72
2021/03/03 01:23:11;;;;;;;;;36.00;30.40;;;;;3.79;72.68;100919.27;471617;116;385373;-72
2021/03/03 01:24:15;;;;;;;;;33.80;26.00;;;;;3.79;72.62;100914.01;471210;116;384334;-70
2021/03/03 01:25:19;;;;;;;;;28.50;21.80;;;;;3.75;72.87;100921.17;463209;118;382773;-74
2021/03/03 01:26:24;;;;;;;;;34.20;26.80;;;;;3.75;72.87;100921.17;465343;117;384188;-74
2021/03/03 01:27:28;;;;;;;;;29.30;22.90;;;;;3.78;72.84;100920.17;472595;115;385222;-72
2021/03/03 01:28:32;;;;;;;;;37.90;27.40;;;;;3.78;72.53;100921.04;471575;116;384897;-73
2021/03/03 01:29:36;;;;;;;;;34.70;32.00;;;;;3.79;72.55;100922.77;471533;116;385639;-73
2021/03/03 01:30:41;;;;;;;;;40.10;33.00;;;;;3.79;72.67;100917.50;471383;116;385265;-73
2021/03/03 01:31:44;;;;;;;;;36.60;32.80;;;;;3.81;72.49;100926.17;471619;116;384714;-74
2021/03/03 01:32:48;;;;;;;;;38.70;32.30;;;;;3.81;72.49;100926.17;471018;116;393538;-73
2021/03/03 01:33:52;;;;;;;;;52.20;42.40;;;;;3.86;72.63;100918.92;471141;116;384906;-72
2021/03/03 01:34:56;;;;;;;;;50.10;40.60;;;;;3.85;72.57;100925.13;471572;116;392992;-72
2021/03/03 01:36:00;;;;;;;;;45.00;36.50;;;;;3.88;72.25;100935.52;471607;116;386780;-72
2021/03/03 01:37:03;;;;;;;;;46.50;35.70;;;;;3.88;72.25;100935.52;471575;116;385984;-72
2021/03/03 01:38:07;;;;;;;;;28.80;28.70;;;;;3.88;72.19;100930.26;471621;116;385999;-74
2021/03/03 01:39:11;;;;;;;;;46.50;38.00;;;;;3.93;72.12;100932.67;471556;116;387418;-72
2021/03/03 01:40:16;;;;;;;;;47.70;39.90;;;;;3.93;71.88;100930.04;470813;116;386191;-73
2021/03/03 01:41:20;;;;;;;;;54.30;39.70;;;;;3.93;71.93;100930.04;471810;116;387980;-72
2021/03/03 01:42:24;;;;;;;;;39.50;33.60;;;;;3.93;71.92;100930.91;477241;114;385813;-71
2021/03/03 01:43:32;;;;;;;;;36.10;30.80;;;;;3.93;71.92;100930.91;477227;114;386014;-72
2021/03/03 01:44:35;;;;;;;;;38.60;31.80;;;;;4.00;71.94;100937.62;477447;114;393245;-72
2021/03/03 01:45:39;;;;;;;;;38.00;30.20;;;;;4.00;71.94;100937.62;477781;114;385406;-72
2021/03/03 01:46:45;;;;;;;;;34.30;29.30;;;;;4.03;71.64;100936.62;477130;114;384863;-70
2021/03/03 01:47:49;;;;;;;;;36.40;30.80;;;;;4.00;71.37;100942.88;477734;114;385587;-70
2021/03/03 01:48:53;;;;;;;;;38.10;27.30;;;;;4.02;71.92;100934.94;477358;114;386584;-73
2021/03/03 01:49:57;;;;;;;;;35.90;31.70;;;;;4.02;71.92;100934.94;477789;114;384851;-70
2021/03/03 01:51:01;;;;;;;;;35.30;28.10;;;;;3.97;71.67;100940.38;477709;114;385911;-70
2021/03/03 01:52:05;;;;;;;;;32.70;28.80;;;;;3.96;71.73;100946.55;477774;114;384449;-73
2021/03/03 01:53:09;;;;;;;;;32.30;28.30;;;;;3.96;71.73;100946.55;477512;114;384858;-73
2021/03/03 01:54:13;;;;;;;;;35.30;27.60;;;;;4.02;71.57;100946.29;477776;114;384879;-71
2021/03/03 01:55:17;;;;;;;;;28.30;23.70;;;;;4.02;71.36;100951.55;477783;114;384405;-73
2021/03/03 01:56:21;;;;;;;;;30.60;27.00;;;;;4.01;71.50;100947.23;477460;114;383488;-72
2021/03/03 01:57:26;;;;;;;;;33.90;28.10;;;;;4.00;71.47;100949.92;477729;114;394965;-72
2021/03/03 01:58:29;;;;;;;;;39.60;27.10;;;;;4.00;71.47;100949.92;477775;114;386859;-73
2021/03/03 01:59:33;;;;;;;;;31.90;27.60;;;;;3.99;71.57;100954.32;477783;114;384609;-71
2021/03/03 02:00:39;;;;;;;;;33.90;26.30;;;;;4.03;71.59;100949.78;476984;114;383528;-71
2021/03/03 02:01:43;;;;;;;;;30.30;25.50;;;;;4.03;71.59;100949.78;477774;114;384711;-71
2021/03/03 02:02:47;;;;;;;;;31.80;26.00;;;;;3.99;71.52;100948.23;477823;114;384246;-71
2021/03/03 02:03:51;;;;;;;;;36.10;25.60;;;;;4.01;71.70;100949.87;477773;114;385157;-72
2021/03/03 02:04:55;;;;;;;;;32.60;26.70;;;;;3.89;72.02;100950.40;477791;114;391365;-73
2021/03/03 02:06:01;;;;;;;;;32.70;27.90;;;;;3.88;72.26;100950.45;477651;114;391506;-74
2021/03/03 02:07:09;;;;;;;;;21.90;19.60;;;;;3.86;72.26;100957.56;477386;114;381742;-73
2021/03/03 02:08:15;;;;;;;;;35.80;27.60;;;;;3.86;72.26;100957.56;477261;114;385236;-71
2021/03/03 02:09:21;;;;;;;;;29.30;23.50;;;;;3.88;72.57;100963.60;477288;114;383472;-73
2021/03/03 02:10:35;;;;;;;;;26.00;25.00;;;;;3.69;72.92;100959.12;477277;114;382795;-72
2021/03/03 02:11:42;;;;;;;;;29.50;24.80;;;;;3.75;73.01;100963.27;476682;114;387124;-75
2021/03/03 02:12:51;;;;;;;;;30.90;26.40;;;;;3.75;73.01;100963.27;477383;114;382982;-75
2021/03/03 02:13:56;;;;;;;;;31.80;26.80;;;;;3.73;72.81;100962.48;477359;114;383541;-75
2021/03/03 02:15:01;;;;;;;;;27.90;25.40;;;;;3.80;72.87;100963.91;477285;114;384104;-73
2021/03/03 02:16:06;;;;;;;;;26.10;21.60;;;;;3.89;72.36;100973.22;477532;114;391757;-71
2021/03/03 02:17:10;;;;;;;;;35.50;28.30;;;;;3.92;71.99;100971.31;477092;114;385183;-72
2021/03/03 02:18:14;;;;;;;;;35.40;24.20;;;;;3.92;71.99;100971.31;477848;114;384069;-73
2021/03/03 02:19:20;;;;;;;;;28.90;22.80;;;;;3.89;71.88;100971.45;477804;114;385727;-72
2021/03/03 02:20:26;;;;;;;;;27.90;17.40;;;;;3.65;73.09;100964.55;459833;118;381618;-74
2021/03/03 02:21:33;;;;;;;;;31.50;25.10;;;;;3.65;73.09;100964.55;477576;114;384318;-72
2021/03/03 02:22:46;;;;;;;;;33.20;22.60;;;;;3.70;73.19;100970.50;476864;114;385307;-72
2021/03/03 02:23:53;;;;;;;;;14.80;9.90;;;;;3.62;73.61;100983.09;477428;114;375947;-72
2021/03/03 02:25:00;;;;;;;;;30.00;26.70;;;;;3.66;73.30;100980.30;477564;114;384451;-74
2021/03/03 02:26:04;;;;;;;;;28.10;22.60;;;;;3.70;73.17;100981.02;476806;114;382760;-71
2021/03/03 02:27:08;;;;;;;;;34.30;25.80;;;;;3.67;72.99;100981.12;477851;114;384433;-72
2021/03/03 02:28:12;;;;;;;;;30.20;24.70;;;;;3.67;72.99;100981.12;477774;114;391493;-73
2021/03/03 02:29:18;;;;;;;;;32.10;25.20;;;;;3.83;72.48;100984.83;477778;114;383840;-73
2021/03/03 02:30:25;;;;;;;;;32.60;26.20;;;;;3.87;72.11;100994.31;460439;118;383699;-74
2021/03/03 02:31:29;;;;;;;;;27.00;22.60;;;;;3.87;72.11;100994.31;477505;114;384863;-72
2021/03/03 02:32:33;;;;;;;;;33.20;27.00;;;;;3.82;72.36;100988.41;477823;114;383828;-72
2021/03/03 02:33:37;;;;;;;;;24.30;19.40;;;;;3.82;72.30;100996.30;477907;114;382363;-70
2021/03/03 02:34:40;;;;;;;;;29.20;24.00;;;;;3.82;72.30;100996.30;477822;114;383091;-71
2021/03/03 02:35:46;;;;;;;;;27.00;22.60;;;;;3.85;72.19;100990.05;477847;114;381934;-73
2021/03/03 02:36:52;;;;;;;;;26.30;22.00;;;;;3.84;72.22;100994.45;460420;118;383156;-71
2021/03/03 02:37:55;;;;;;;;;12.30;12.20;;;;;3.84;72.06;100990.95;477774;114;379077;-71
2021/03/03 02:38:59;;;;;;;;;29.50;23.70;;;;;3.84;72.16;100997.08;477758;114;384477;-72
2021/03/03 02:40:05;;;;;;;;;18.70;15.80;;;;;3.78;72.56;101004.36;477960;114;378985;-70
2021/03/03 02:41:10;;;;;;;;;32.20;26.90;;;;;3.68;72.75;100999.48;477166;114;384300;-72
2021/03/03 02:42:14;;;;;;;;;35.80;28.80;;;;;3.68;72.75;100999.48;475402;114;383484;-71
2021/03/03 02:43:18;;;;;;;;;30.30;27.30;;;;;3.76;72.39;101001.81;471601;116;391376;-72
2021/03/03 02:44:22;;;;;;;;;27.60;22.50;;;;;3.69;72.79;101002.98;471390;116;383725;-71
2021/03/03 02:45:26;;;;;;;;;26.80;23.40;;;;;3.64;72.83;101007.55;471666;116;383176;-71
2021/03/03 02:46:31;;;;;;;;;28.90;23.90;;;;;3.64;72.83;101007.55;471385;116;382515;-70
2021/03/03 02:47:35;;;;;;;;;28.40;24.50;;;;;3.64;72.90;101010.18;471417;116;384020;-72
2021/03/03 02:48:39;;;;;;;;;25.10;23.90;;;;;3.59;73.15;101009.52;471384;116;383157;-72
2021/03/03 02:49:43;;;;;;;;;23.00;17.40;;;;;3.59;73.15;101009.52;463419;118;381929;-74
2021/03/03 02:50:48;;;;;;;;;23.30;20.00;;;;;3.32;74.20;101005.38;463370;118;380984;-72
2021/03/03 02:51:52;;;;;;;;;25.00;21.20;;;;;3.32;74.20;101005.38;471641;116;383187;-75
2021/03/03 02:52:57;;;;;;;;;27.40;24.50;;;;;3.32;74.62;101018.52;471585;116;384970;-73
2021/03/03 02:54:00;;;;;;;;;24.90;19.40;;;;;3.32;74.62;101018.52;471370;116;389616;-72
2021/03/03 02:55:06;;;;;;;;;17.90;13.60;;;;;3.30;74.75;101013.30;471297;116;379764;-73
2021/03/03 02:56:11;;;;;;;;;28.00;23.80;;;;;3.22;75.08;101012.77;471102;116;384015;-74
2021/03/03 02:57:15;;;;;;;;;30.60;24.10;;;;;3.22;75.08;101012.77;471654;116;383570;-75
2021/03/03 02:58:20;;;;;;;;;34.20;26.40;;;;;3.31;74.62;101022.05;471737;116;391524;-74
2021/03/03 02:59:28;;;;;;;;;29.70;21.60;;;;;3.29;74.49;101018.64;471508;116;384604;-75
2021/03/03 03:00:35;;;;;;;;;26.80;23.40;;;;;3.30;74.39;101028.22;471549;116;383039;-73
2021/03/03 03:01:39;;;;;;;;;29.90;26.00;;;;;3.30;74.39;101028.22;471268;116;384256;-73
2021/03/03 03:02:44;;;;;;;;;24.70;21.30;;;;;3.30;74.53;101023.82;471428;116;383713;-73
2021/03/03 03:03:51;;;;;;;;;23.60;22.00;;;;;3.37;74.21;101029.70;471423;116;383697;-75
2021/03/03 03:04:54;;;;;;;;;32.70;23.70;;;;;3.33;73.94;101026.33;471148;116;385146;-74
2021/03/03 03:06:00;;;;;;;;;5.60;3.20;;;;;3.17;74.64;101033.95;471831;116;374298;-78
2021/03/03 03:07:07;;;;;;;;;23.40;21.00;;;;;3.17;74.64;101033.95;471112;116;383382;-78
2021/03/03 03:08:13;;;;;;;;;21.40;21.10;;;;;3.25;74.54;101033.67;471283;116;384295;-78
2021/03/03 03:09:17;;;;;;;;;31.40;25.70;;;;;3.35;73.66;101036.80;471062;116;385127;-76
2021/03/03 03:10:22;;;;;;;;;26.80;22.30;;;;;3.29;73.94;101031.78;471307;116;389638;-77
2021/03/03 03:11:27;;;;;;;;;24.50;20.20;;;;;3.29;73.94;101031.78;471451;116;383028;-78
2021/03/03 03:12:31;;;;;;;;;25.60;21.30;;;;;3.29;73.99;101044.93;471419;116;390045;-79
2021/03/03 03:13:35;;;;;;;;;21.50;17.10;;;;;3.33;73.85;101046.50;471747;116;382860;-78
2021/03/03 03:14:40;;;;;;;;;26.00;20.20;;;;;3.24;73.82;101045.09;471415;116;382088;-78
2021/03/03 03:15:44;;;;;;;;;30.20;26.60;;;;;3.18;74.52;101042.70;462999;118;383752;-77
2021/03/03 03:16:50;;;;;;;;;92.50;70.20;;;;;3.18;74.52;101042.70;463192;118;389540;-79
2021/03/03 03:17:56;;;;;;;;;81.00;59.70;;;;;3.13;74.72;101047.25;471523;116;389980;-78
2021/03/03 03:19:00;;;;;;;;;83.30;63.40;;;;;3.04;74.73;101055.48;471120;116;388780;-78
2021/03/03 03:20:05;;;;;;;;;48.90;43.50;;;;;3.04;74.73;101055.48;471637;116;385507;-77
2021/03/03 03:21:09;;;;;;;;;34.40;27.20;;;;;3.17;74.56;101054.98;471129;116;381834;-78
2021/03/03 03:22:15;;;;;;;;;22.40;19.70;;;;;3.10;74.59;101044.74;471634;116;381054;-77
2021/03/03 03:23:19;;;;;;;;;30.90;26.50;;;;;3.10;74.59;101044.74;471070;116;388831;-78
2021/03/03 03:24:23;;;;;;;;;30.80;22.30;;;;;3.10;74.45;101064.00;471685;116;383973;-79
2021/03/03 03:25:27;;;;;;;;;7.20;4.20;;;;;3.14;74.52;101067.37;471862;116;380442;-79
2021/03/03 03:26:33;;;;;;;;;25.70;19.30;;;;;3.14;74.52;101067.37;471312;116;383974;-78
2021/03/03 03:27:37;;;;;;;;;9.10;4.60;;;;;3.08;74.74;101063.22;471919;116;374824;-79
2021/03/03 03:28:41;;;;;;;;;26.80;21.60;;;;;3.08;74.74;101063.22;471490;116;385453;-79
2021/03/03 03:29:45;;;;;;;;;20.40;17.80;;;;;3.09;74.62;101072.83;471710;116;380802;-78
2021/03/03 03:30:49;;;;;;;;;23.70;20.60;;;;;3.04;75.05;101063.38;471378;116;384772;-79
2021/03/03 03:31:53;;;;;;;;;28.80;21.80;;;;;3.04;75.05;101063.38;471624;116;383578;-79
2021/03/03 03:32:57;;;;;;;;;27.90;22.00;;;;;3.04;74.89;101073.88;471646;116;383224;-76
2021/03/03 03:34:01;;;;;;;;;22.90;20.20;;;;;3.10;74.96;101069.26;470994;116;382627;-78
2021/03/03 03:35:07;;;;;;;;;27.10;24.00;;;;;3.10;74.96;101069.26;471547;116;392291;-77
2021/03/03 03:36:11;;;;;;;;;25.70;19.80;;;;;3.15;74.48;101075.22;471290;116;383490;-77
2021/03/03 03:37:15;;;;;;;;;15.90;10.10;;;;;3.21;74.21;101071.49;471483;116;377316;-78
2021/03/03 03:38:19;;;;;;;;;20.10;17.50;;;;;3.23;73.76;101074.05;471661;116;387656;-77
2021/03/03 03:39:24;;;;;;;;;19.30;16.70;;;;;3.20;74.29;101073.26;471785;116;380336;-79
2021/03/03 03:40:28;;;;;;;;;22.30;19.00;;;;;3.20;74.29;101073.26;471530;116;382950;-80
2021/03/03 03:41:33;;;;;;;;;22.60;21.40;;;;;3.23;73.93;101074.91;471405;116;384701;-79
2021/03/03 03:42:36;;;;;;;;;24.80;20.00;;;;;3.22;73.93;101074.98;471978;116;384170;-80
2021/03/03 03:43:41;;;;;;;;;23.80;20.80;;;;;3.22;73.93;101074.98;477946;114;382594;-80
2021/03/03 03:44:45;;;;;;;;;27.80;21.10;;;;;3.29;73.42;101081.73;477540;114;386150;-81
2021/03/03 03:45:49;;;;;;;;;28.00;24.10;;;;;3.33;73.11;101076.28;477326;114;383574;-80
2021/03/03 03:46:54;;;;;;;;;18.00;17.10;;;;;3.33;73.11;101076.28;477638;114;380684;-80
2021/03/03 03:47:58;;;;;;;;;19.00;15.60;;;;;3.30;73.14;101078.16;477901;114;380335;-79
2021/03/03 03:49:02;;;;;;;;;20.90;15.50;;;;;3.07;74.29;101081.66;477567;114;380362;-81
2021/03/03 03:50:08;;;;;;;;;21.70;18.30;;;;;3.14;74.05;101083.14;476380;114;382056;-80
2021/03/03 03:51:12;;;;;;;;;30.36;21.36;;;;;3.20;73.48;101077.66;471169;114;390059;-80
2021/03/03 03:52:16;;;;;;;;;25.50;20.70;;;;;3.20;73.48;101077.66;474042;114;384867;-80
2021/03/03 03:53:20;;;;;;;;;20.10;16.60;;;;;3.14;73.78;101086.64;471860;114;380870;-81
2021/03/03 03:54:24;;;;;;;;;15.20;10.60;;;;;2.99;74.54;101088.97;469181;116;381362;-81
2021/03/03 03:55:32;;;;;;;;;15.40;12.60;;;;;2.81;75.33;101090.48;472329;114;379558;-81
2021/03/03 03:56:39;;;;;;;;;21.90;19.00;;;;;2.95;74.97;101087.36;468690;116;381998;-81
2021/03/03 03:57:50;;;;;;;;;23.80;21.10;;;;;2.95;74.97;101087.36;468858;116;381761;-82
2021/03/03 03:58:54;;;;;;;;;17.80;16.20;;;;;2.91;74.88;101093.63;468905;116;380421;-83
2021/03/03 03:59:58;;;;;;;;;17.60;12.50;;;;;2.91;74.88;101093.63;469405;116;380708;-80
2021/03/03 04:01:02;;;;;;;;;22.00;15.90;;;;;2.98;74.93;101080.23;469380;116;381617;-80
2021/03/03 04:02:06;;;;;;;;;24.20;19.70;;;;;3.02;74.66;101094.12;469255;116;388190;-80
2021/03/03 04:03:11;;;;;;;;;17.30;15.40;;;;;3.02;74.66;101094.12;469113;116;379556;-79
2021/03/03 04:04:15;;;;;;;;;21.10;19.00;;;;;3.02;74.72;101097.61;469091;116;382230;-79
2021/03/03 04:05:19;;;;;;;;;21.20;18.00;;;;;3.11;74.20;101096.40;469462;116;381747;-79
2021/03/03 04:06:24;;;;;;;;;22.50;19.90;;;;;3.12;73.85;101098.98;469047;116;383809;-76
2021/03/03 04:07:28;;;;;;;;;19.10;16.00;;;;;3.08;74.43;101094.75;469086;116;381118;-81
2021/03/03 04:08:32;;;;;;;;;24.40;22.10;;;;;3.11;74.20;101088.52;469273;116;389766;-78
2021/03/03 04:09:36;;;;;;;;;17.60;15.00;;;;;3.05;74.34;101086.98;469128;116;380126;-79
2021/03/03 04:10:42;;;;;;;;;25.60;18.60;;;;;3.03;74.21;101088.79;468670;116;382046;-79
2021/03/03 04:11:46;;;;;;;;;18.90;15.20;;;;;2.95;74.40;101090.85;469211;116;381633;-81
2021/03/03 04:12:50;;;;;;;;;22.10;17.40;;;;;2.97;74.10;101094.27;469338;116;381892;-79
2021/03/03 04:13:54;;;;;;;;;22.90;19.50;;;;;2.99;74.11;101107.37;469351;116;384139;-78
2021/03/03 04:14:58;;;;;;;;;22.70;17.90;;;;;2.95;74.35;101093.48;469316;116;381349;-77
2021/03/03 04:16:02;;;;;;;;;22.20;18.10;;;;;2.95;74.35;101093.48;468999;116;382172;-75
2021/03/03 04:17:06;;;;;;;;;16.20;11.50;;;;;2.92;74.43;101106.73;469352;116;380215;-74
2021/03/03 04:18:11;;;;;;;;;20.40;16.10;;;;;2.81;74.82;101111.49;469380;116;379978;-73
2021/03/03 04:19:15;;;;;;;;;26.30;18.70;;;;;2.81;74.82;101111.49;468727;116;381699;-74
2021/03/03 04:20:20;;;;;;;;;19.80;14.30;;;;;2.78;74.85;101108.98;469184;116;379084;-72
2021/03/03 04:21:24;;;;;;;;;27.20;20.50;;;;;2.78;74.85;101108.98;469264;116;391123;-73
2021/03/03 04:22:28;;;;;;;;;17.10;14.80;;;;;2.77;74.85;101114.30;469024;116;378594;-74
2021/03/03 04:23:32;;;;;;;;;15.30;13.10;;;;;2.77;74.85;101114.30;469083;116;379725;-75
2021/03/03 04:24:36;;;;;;;;;27.00;23.70;;;;;2.62;75.56;101121.79;469284;116;382627;-74
2021/03/03 04:25:39;;;;;;;;;20.00;17.70;;;;;2.62;75.56;101121.79;469333;116;387318;-73
2021/03/03 04:26:45;;;;;;;;;31.10;25.30;;;;;2.68;75.25;101118.09;468718;116;384588;-73
2021/03/03 04:27:49;;;;;;;;;23.90;20.50;;;;;2.68;75.25;101118.09;469231;116;384495;-73
2021/03/03 04:28:53;;;;;;;;;19.10;17.40;;;;;2.78;74.57;101124.73;468875;116;383687;-75
2021/03/03 04:29:57;;;;;;;;;23.90;16.80;;;;;2.78;74.57;101124.73;469326;116;381229;-77
2021/03/03 04:31:01;;;;;;;;;18.20;17.00;;;;;2.79;74.47;101125.60;469113;116;381556;-75
2021/03/03 04:32:06;;;;;;;;;22.00;16.90;;;;;2.79;74.47;101125.60;478701;113;381499;-76
2021/03/03 04:33:10;;;;;;;;;28.70;23.00;;;;;2.83;73.86;101125.45;476937;114;383270;-74
2021/03/03 04:35:22;;;;;;;;;18.50;16.40;;;;;2.76;74.15;101131.83;489227;108;414080;-75
2021/03/03 04:36:28;;;;;;;;;19.70;18.30;;;;;2.76;74.15;101131.83;492323;110;383160;-77
2021/03/03 04:37:32;;;;;;;;;19.10;13.40;;;;;2.83;73.78;101138.59;495380;110;377990;-75
2021/03/03 04:38:37;;;;;;;;;31.90;23.70;;;;;2.96;73.03;101139.88;495254;110;382933;-74
2021/03/03 04:39:41;;;;;;;;;19.20;17.50;;;;;2.96;73.03;101139.88;494744;110;381112;-75
2021/03/03 04:40:47;;;;;;;;;22.20;18.40;;;;;2.94;72.74;101146.06;494753;110;381565;-74
2021/03/03 04:41:51;;;;;;;;;20.30;17.00;;;;;3.02;72.69;101149.30;495035;110;381983;-74
2021/03/03 04:42:55;;;;;;;;;26.00;22.10;;;;;2.91;72.71;101154.92;495303;110;382139;-74
2021/03/03 04:43:59;;;;;;;;;11.80;8.20;;;;;2.91;72.71;101154.92;495469;110;376947;-75
2021/03/03 04:45:04;;;;;;;;;11.30;8.70;;;;;2.83;73.20;101159.60;495249;110;376510;-74
2021/03/03 04:46:09;;;;;;;;;23.60;17.00;;;;;2.83;73.20;101159.60;494732;110;383886;-74
2021/03/03 04:47:13;;;;;;;;;18.50;13.50;;;;;2.89;73.24;101159.38;495323;110;385502;-75
2021/03/03 04:48:17;;;;;;;;;20.20;18.90;;;;;2.96;72.87;101158.27;495267;110;381571;-76
2021/03/03 04:49:21;;;;;;;;;16.20;15.50;;;;;3.03;72.51;101162.36;495385;110;378177;-76
2021/03/03 04:50:27;;;;;;;;;15.30;11.60;;;;;2.92;72.80;101163.66;494785;110;385555;-75
2021/03/03 04:51:31;;;;;;;;;20.40;17.50;;;;;2.94;72.78;101170.58;495347;110;382913;-74
2021/03/03 04:52:36;;;;;;;;;19.60;15.30;;;;;2.94;72.78;101170.58;494822;110;382494;-75
2021/03/03 04:53:40;;;;;;;;;19.18;13.82;;;;;3.06;72.20;101170.14;495295;110;390932;-74
2021/03/03 04:54:44;;;;;;;;;10.30;8.70;;;;;3.06;72.20;101170.14;495406;110;383801;-74